createdAt,value
2022-12-10T00:01:48.840Z,0.30
2022-12-10T00:04:17.128Z,0.24
2022-12-10T00:06:45.089Z,0.30
2022-12-10T00:09:14.046Z,0.25
2022-12-10T00:11:41.880Z,0.21
2022-12-10T00:14:10.207Z,0.22
2022-12-10T00:16:39.839Z,0.14
2022-12-10T00:19:07.787Z,0.11
2022-12-10T00:21:36.591Z,0.13
2022-12-10T00:24:05.138Z,0.15
2022-12-10T00:26:34.253Z,0.04
2022-12-10T00:29:02.413Z,0.14
2022-12-10T00:31:32.160Z,0.10
2022-12-10T00:34:02.847Z,0.09
2022-12-10T00:36:33.197Z,0.36
2022-12-10T00:39:01.616Z,0.24
2022-12-10T00:41:29.827Z,0.12
2022-12-10T00:43:57.676Z,0.09
2022-12-10T00:46:25.750Z,0.13
2022-12-10T00:48:53.559Z,0.08
2022-12-10T00:51:23.591Z,0.00
2022-12-10T00:53:52.644Z,0.08
2022-12-10T00:56:21.199Z,0.15
2022-12-10T00:58:49.441Z,-0.01
2022-12-10T01:01:19.021Z,-0.04
2022-12-10T01:03:47.272Z,-0.01
2022-12-10T01:06:16.115Z,0.03
2022-12-10T01:08:45.709Z,0.08
2022-12-10T01:11:14.247Z,0.09
2022-12-10T01:13:42.434Z,0.08
2022-12-10T01:16:11.814Z,-0.01
2022-12-10T01:18:40.059Z,0.01
2022-12-10T01:21:09.549Z,0.08
2022-12-10T01:23:38.583Z,0.01
2022-12-10T01:26:09.061Z,0.03
2022-12-10T01:28:38.422Z,0.17
2022-12-10T01:31:07.477Z,0.05
2022-12-10T01:33:35.705Z,0.28
2022-12-10T01:36:04.460Z,0.14
2022-12-10T01:38:32.232Z,-0.04
2022-12-10T01:41:00.265Z,0.03
2022-12-10T01:43:29.521Z,-0.02
2022-12-10T01:45:57.359Z,0.25
2022-12-10T01:48:25.252Z,0.09
2022-12-10T01:50:53.019Z,0.00
2022-12-10T01:53:21.019Z,-0.05
2022-12-10T01:55:50.287Z,0.15
2022-12-10T01:58:19.414Z,-0.08
2022-12-10T02:00:53.589Z,0.04
2022-12-10T02:03:24.411Z,-0.10
2022-12-10T02:05:57.819Z,-0.15
2022-12-10T02:08:28.105Z,0.10
2022-12-10T02:11:00.232Z,-0.06
2022-12-10T02:13:30.364Z,-0.07
2022-12-10T02:16:02.385Z,-0.07
2022-12-10T02:18:33.682Z,0.01
2022-12-10T02:21:04.191Z,-0.01
2022-12-10T02:23:35.956Z,0.07
2022-12-10T02:26:06.986Z,0.05
2022-12-10T02:28:38.870Z,0.03
2022-12-10T02:31:11.617Z,0.13
2022-12-10T02:33:42.516Z,0.10
2022-12-10T02:36:11.866Z,0.09
2022-12-10T02:38:41.912Z,0.08
2022-12-10T02:41:15.569Z,0.05
2022-12-10T02:43:45.497Z,0.08
2022-12-10T02:46:14.982Z,0.13
2022-12-10T02:48:43.829Z,0.11
2022-12-10T02:51:11.576Z,0.08
2022-12-10T02:53:43.210Z,0.15
2022-12-10T02:56:15.631Z,0.10
2022-12-10T02:58:53.545Z,0.08
2022-12-10T03:01:28.320Z,0.06
2022-12-10T03:03:58.591Z,0.05
2022-12-10T03:06:30.141Z,0.06
2022-12-10T03:09:01.752Z,0.16
2022-12-10T03:11:29.847Z,0.07
2022-12-10T03:14:01.180Z,0.08
2022-12-10T03:16:33.381Z,0.19
2022-12-10T03:19:03.383Z,0.08
2022-12-10T03:21:32.297Z,0.15
2022-12-10T03:24:00.669Z,0.15
2022-12-10T03:26:29.447Z,0.15
2022-12-10T03:29:00.457Z,0.06
2022-12-10T03:31:28.825Z,0.10
2022-12-10T03:33:58.301Z,0.15
2022-12-10T03:36:26.795Z,0.08
2022-12-10T03:38:55.252Z,0.13
2022-12-10T03:41:23.054Z,0.01
2022-12-10T03:43:55.133Z,-0.02
2022-12-10T03:46:23.599Z,-0.07
2022-12-10T03:48:52.008Z,-0.04
2022-12-10T03:51:21.258Z,-0.12
2022-12-10T03:53:50.673Z,-0.07
2022-12-10T03:56:18.663Z,-0.03
2022-12-10T03:58:46.547Z,0.04
2022-12-10T04:01:14.713Z,-0.06
2022-12-10T04:03:43.512Z,-0.11
2022-12-10T04:06:12.425Z,0.02
2022-12-10T04:08:41.657Z,0.00
2022-12-10T04:11:11.141Z,0.01
2022-12-10T04:13:57.100Z,-0.03
2022-12-10T04:16:31.449Z,0.04
2022-12-10T04:19:01.291Z,0.08
2022-12-10T04:21:48.064Z,-0.01
2022-12-10T04:24:35.953Z,-0.12
2022-12-10T04:27:05.412Z,-0.08
2022-12-10T04:29:33.233Z,-0.12
2022-12-10T04:32:01.241Z,0.03
2022-12-10T04:34:29.116Z,-0.04
2022-12-10T04:36:57.081Z,-0.16
2022-12-10T04:39:26.393Z,-0.13
2022-12-10T04:41:54.317Z,-0.14
2022-12-10T04:44:22.168Z,-0.04
2022-12-10T04:46:50.468Z,-0.10
2022-12-10T04:49:18.374Z,0.08
2022-12-10T04:51:46.688Z,-0.17
2022-12-10T04:54:15.057Z,0.00
2022-12-10T04:56:44.627Z,-0.14
2022-12-10T04:59:12.742Z,-0.09
2022-12-10T05:01:40.683Z,-0.14
2022-12-10T05:04:09.545Z,-0.20
2022-12-10T05:06:37.601Z,-0.09
2022-12-10T05:09:07.177Z,-0.10
2022-12-10T05:11:35.492Z,-0.24
2022-12-10T05:14:04.678Z,-0.23
2022-12-10T05:16:33.338Z,-0.07
2022-12-10T05:19:01.253Z,-0.21
2022-12-10T05:21:50.880Z,-0.08
2022-12-10T05:24:18.542Z,-0.04
2022-12-10T05:26:46.476Z,-0.06
2022-12-10T05:29:15.679Z,-0.01
2022-12-10T05:31:43.559Z,-0.06
2022-12-10T05:34:12.085Z,-0.05
2022-12-10T05:36:40.007Z,0.02
2022-12-10T05:39:07.834Z,-0.03
2022-12-10T05:41:36.799Z,-0.11
2022-12-10T05:44:05.602Z,-0.06
2022-12-10T05:46:36.414Z,-0.13
2022-12-10T05:49:06.031Z,-0.04
2022-12-10T05:51:35.241Z,-0.05
2022-12-10T05:54:04.475Z,-0.05
2022-12-10T05:56:32.576Z,-0.10
2022-12-10T05:59:01.115Z,0.06
2022-12-10T06:01:29.644Z,-0.14
2022-12-10T06:03:59.866Z,-0.14
2022-12-10T06:06:28.800Z,-0.10
2022-12-10T06:08:57.656Z,-0.18
2022-12-10T06:11:27.420Z,-0.16
2022-12-10T06:13:56.580Z,-0.06
2022-12-10T06:16:25.552Z,0.01
2022-12-10T06:18:53.475Z,-0.02
2022-12-10T06:21:23.049Z,-0.06
2022-12-10T06:23:52.328Z,-0.08
2022-12-10T06:26:22.131Z,-0.02
2022-12-10T06:28:50.421Z,-0.19
2022-12-10T06:31:18.690Z,-0.15
2022-12-10T06:33:47.082Z,-0.19
2022-12-10T06:36:16.706Z,-0.17
2022-12-10T06:38:45.899Z,-0.09
2022-12-10T06:41:14.413Z,-0.19
2022-12-10T06:43:42.482Z,-0.11
2022-12-10T06:46:11.746Z,-0.19
2022-12-10T06:48:39.784Z,-0.23
2022-12-10T06:51:07.965Z,-0.07
2022-12-10T06:53:36.664Z,-0.02
2022-12-10T06:56:07.254Z,-0.08
2022-12-10T06:58:35.624Z,-0.18
2022-12-10T07:01:05.170Z,-0.08
2022-12-10T07:03:32.981Z,-0.13
2022-12-10T07:06:01.124Z,-0.16
2022-12-10T07:08:29.397Z,0.08
2022-12-10T07:10:57.613Z,-0.03
2022-12-10T07:13:30.800Z,-0.15
2022-12-10T07:15:59.103Z,-0.08
2022-12-10T07:18:28.392Z,-0.12
2022-12-10T07:20:56.235Z,-0.15
2022-12-10T07:23:24.078Z,-0.14
2022-12-10T07:25:56.047Z,-0.14
2022-12-10T07:28:24.015Z,-0.15
2022-12-10T07:30:53.237Z,-0.19
2022-12-10T07:33:21.332Z,-0.24
2022-12-10T07:35:49.475Z,-0.19
2022-12-10T07:38:17.400Z,-0.16
2022-12-10T07:40:45.362Z,-0.23
2022-12-10T07:43:13.850Z,-0.18
2022-12-10T07:45:41.709Z,-0.26
2022-12-10T07:48:10.896Z,-0.19
2022-12-10T07:50:38.792Z,-0.18
2022-12-10T07:53:07.335Z,-0.25
2022-12-10T07:55:35.289Z,-0.16
2022-12-10T07:58:03.226Z,-0.15
2022-12-10T08:00:31.255Z,0.06
2022-12-10T08:02:59.511Z,-0.07
2022-12-10T08:05:28.817Z,0.00
2022-12-10T08:08:02.000Z,0.22
2022-12-10T08:10:32.004Z,0.14
2022-12-10T08:12:59.870Z,-0.11
2022-12-10T08:15:29.114Z,-0.34
2022-12-10T08:17:57.258Z,-0.18
2022-12-10T08:20:25.569Z,-0.10
2022-12-10T08:22:54.796Z,-0.11
2022-12-10T08:25:22.660Z,-0.17
2022-12-10T08:27:50.530Z,-0.04
2022-12-10T08:30:18.421Z,0.00
2022-12-10T08:32:46.232Z,0.15
2022-12-10T08:35:14.055Z,0.17
2022-12-10T08:37:43.121Z,-0.04
2022-12-10T08:40:13.025Z,0.01
2022-12-10T08:42:41.012Z,-0.12
2022-12-10T08:45:09.252Z,-0.04
2022-12-10T08:47:37.104Z,0.03
2022-12-10T08:50:07.292Z,-0.07
2022-12-10T08:52:35.447Z,-0.03
2022-12-10T08:55:03.341Z,-0.07
2022-12-10T08:57:32.580Z,0.11
2022-12-10T09:00:00.447Z,-0.03
2022-12-10T09:02:28.619Z,0.32
2022-12-10T09:04:56.586Z,0.16
2022-12-10T09:07:24.398Z,0.14
2022-12-10T09:09:52.230Z,-0.02
2022-12-10T09:12:20.102Z,0.04
2022-12-10T09:14:49.942Z,-0.06
2022-12-10T09:17:17.805Z,0.12
2022-12-10T09:19:45.729Z,0.11
2022-12-10T09:22:13.507Z,0.03
2022-12-10T09:24:41.343Z,0.06
2022-12-10T09:27:09.303Z,0.07
2022-12-10T09:29:37.018Z,-0.06
2022-12-10T09:32:06.426Z,-0.01
2022-12-10T09:34:34.383Z,-0.08
2022-12-10T09:37:02.258Z,0.19
2022-12-10T09:39:30.078Z,0.21
2022-12-10T09:42:08.695Z,0.46
2022-12-10T09:44:44.358Z,0.36
2022-12-10T09:47:14.503Z,0.56
2022-12-10T09:49:48.686Z,0.15
2022-12-10T09:52:19.101Z,0.05
2022-12-10T09:54:49.829Z,0.37
2022-12-10T09:57:21.330Z,0.22
2022-12-10T09:59:50.837Z,0.32
2022-12-10T10:02:24.898Z,0.17
2022-12-10T10:04:53.751Z,0.51
2022-12-10T10:07:23.674Z,0.08
2022-12-10T10:09:52.793Z,-0.04
2022-12-10T10:12:20.647Z,0.19
2022-12-10T10:14:48.680Z,0.15
2022-12-10T10:17:19.264Z,0.32
2022-12-10T10:19:50.205Z,0.30
2022-12-10T10:22:18.121Z,0.14
2022-12-10T10:24:47.477Z,0.09
2022-12-10T10:27:16.821Z,0.18
2022-12-10T10:29:45.670Z,0.38
2022-12-10T10:32:15.917Z,0.31
2022-12-10T10:34:44.346Z,0.29
2022-12-10T10:37:18.892Z,0.44
2022-12-10T10:39:49.545Z,0.58
2022-12-10T10:42:24.353Z,0.66
2022-12-10T10:44:52.429Z,0.59
2022-12-10T10:47:34.442Z,0.22
2022-12-10T10:50:03.404Z,0.20
2022-12-10T10:52:36.859Z,0.10
2022-12-10T10:55:04.936Z,0.35
2022-12-10T10:57:37.141Z,0.27
2022-12-10T11:00:12.702Z,0.09
2022-12-10T11:02:43.862Z,0.12
2022-12-10T11:05:18.630Z,0.22
2022-12-10T11:07:48.043Z,0.42
2022-12-10T11:10:20.142Z,0.12
2022-12-10T11:12:55.791Z,-0.01
2022-12-10T11:15:31.356Z,0.27
2022-12-10T11:17:59.595Z,0.26
2022-12-10T11:20:28.776Z,0.12
2022-12-10T11:22:58.911Z,0.45
2022-12-10T11:25:33.964Z,0.21
2022-12-10T11:28:06.815Z,0.06
2022-12-10T11:30:38.332Z,0.28
2022-12-10T11:33:14.823Z,0.27
2022-12-10T11:35:51.897Z,0.32
2022-12-10T11:38:25.485Z,0.64
2022-12-10T11:40:55.878Z,1.00
2022-12-10T11:43:44.463Z,1.04
2022-12-10T11:46:22.311Z,0.98
2022-12-10T11:48:57.949Z,0.44
2022-12-10T11:51:31.812Z,0.18
2022-12-10T11:54:08.640Z,0.48
2022-12-10T11:56:39.770Z,0.50
2022-12-10T11:59:15.196Z,0.31
2022-12-10T12:01:54.237Z,0.86
2022-12-10T12:04:27.425Z,0.12
2022-12-10T12:07:03.866Z,-0.07
2022-12-10T12:09:39.839Z,0.54
2022-12-10T12:12:13.287Z,0.57
2022-12-10T12:14:43.445Z,0.97
2022-12-10T12:17:14.891Z,0.28
2022-12-10T12:19:47.047Z,0.74
2022-12-10T12:22:17.267Z,0.41
2022-12-10T12:24:49.173Z,0.03
2022-12-10T12:27:23.479Z,0.34
2022-12-10T12:29:59.048Z,0.60
2022-12-10T12:32:27.924Z,0.47
2022-12-10T12:35:01.091Z,0.12
2022-12-10T12:37:32.133Z,0.34
2022-12-10T12:40:04.822Z,0.17
2022-12-10T12:42:37.187Z,0.42
2022-12-10T12:45:10.365Z,0.03
2022-12-10T12:47:42.929Z,0.23
2022-12-10T12:50:17.859Z,-0.10
2022-12-10T12:52:51.039Z,-0.12
2022-12-10T12:55:22.827Z,0.07
2022-12-10T12:57:54.873Z,0.23
2022-12-10T13:00:24.500Z,0.12
2022-12-10T13:03:00.578Z,0.55
2022-12-10T13:05:31.010Z,0.79
2022-12-10T13:08:26.075Z,0.15
2022-12-10T13:10:58.694Z,0.64
2022-12-10T13:13:30.013Z,0.64
2022-12-10T13:15:57.888Z,0.45
2022-12-10T13:18:36.908Z,0.38
2022-12-10T13:21:23.649Z,0.25
2022-12-10T13:23:54.029Z,0.37
2022-12-10T13:26:28.607Z,0.55
2022-12-10T13:28:57.382Z,0.35
2022-12-10T13:31:38.562Z,0.41
2022-12-10T13:34:09.247Z,0.46
2022-12-10T13:36:38.040Z,0.28
2022-12-10T13:39:23.019Z,-0.04
2022-12-10T13:42:34.556Z,0.23
2022-12-10T13:45:05.190Z,0.08
2022-12-10T13:47:34.766Z,0.23
2022-12-10T13:50:04.939Z,0.19
2022-12-10T13:52:34.985Z,0.09
2022-12-10T13:55:22.846Z,0.04
2022-12-10T13:57:58.382Z,0.10
2022-12-10T14:00:33.873Z,0.35
2022-12-10T14:03:19.672Z,0.22
2022-12-10T14:05:59.709Z,0.08
2022-12-10T14:08:29.352Z,0.15
2022-12-10T14:10:58.700Z,0.08
2022-12-10T14:13:32.938Z,-0.09
2022-12-10T14:16:03.123Z,-0.29
2022-12-10T14:18:31.591Z,-0.12
2022-12-10T14:20:59.869Z,-0.27
2022-12-10T14:23:34.840Z,-0.42
2022-12-10T14:26:06.169Z,-0.58
2022-12-10T14:28:34.360Z,-0.54
2022-12-10T14:31:03.968Z,-0.48
2022-12-10T14:33:32.126Z,-0.07
2022-12-10T14:36:00.420Z,-0.52
2022-12-10T14:38:31.452Z,-0.19
2022-12-10T14:40:59.298Z,-0.05
2022-12-10T14:43:31.874Z,-0.16
2022-12-10T14:46:01.350Z,-0.30
2022-12-10T14:48:30.625Z,-0.57
2022-12-10T14:51:04.933Z,-0.70
2022-12-10T14:53:33.549Z,-0.72
2022-12-10T14:56:03.763Z,-0.71
2022-12-10T14:58:40.080Z,-0.71
2022-12-10T15:01:17.258Z,-0.97
2022-12-10T15:03:48.656Z,-0.49
2022-12-10T15:06:18.473Z,-0.29
2022-12-10T15:08:47.191Z,-0.42
2022-12-10T15:11:17.968Z,-0.77
2022-12-10T15:13:47.592Z,-0.55
2022-12-10T15:16:18.937Z,-0.56
2022-12-10T15:18:48.972Z,-0.77
2022-12-10T15:21:18.422Z,-0.54
2022-12-10T15:23:47.077Z,-0.64
2022-12-10T15:26:17.726Z,-0.51
2022-12-10T15:28:45.740Z,-0.59
2022-12-10T15:31:15.046Z,-0.71
2022-12-10T15:33:44.187Z,-0.67
2022-12-10T15:36:18.978Z,-0.50
2022-12-10T15:38:47.040Z,-0.55
2022-12-10T15:41:36.401Z,-0.50
2022-12-10T15:44:05.496Z,-0.65
2022-12-10T15:46:33.796Z,-0.63
2022-12-10T15:49:01.714Z,-0.90
2022-12-10T15:51:30.951Z,-1.10
2022-12-10T15:53:58.745Z,-0.88
2022-12-10T15:56:26.526Z,-1.04
2022-12-10T15:58:54.391Z,-0.76
2022-12-10T16:01:22.218Z,-0.79
2022-12-10T16:03:50.278Z,-0.94
2022-12-10T16:06:20.126Z,-0.77
2022-12-10T16:08:49.441Z,-1.03
2022-12-10T16:11:19.301Z,-1.17
2022-12-10T16:13:49.998Z,-1.12
2022-12-10T16:16:18.611Z,-1.02
2022-12-10T16:18:46.868Z,-0.91
2022-12-10T16:21:14.709Z,-0.92
2022-12-10T16:23:42.580Z,-1.11
2022-12-10T16:26:14.388Z,-0.71
2022-12-10T16:28:42.304Z,-0.92
2022-12-10T16:31:12.471Z,-0.82
2022-12-10T16:33:40.637Z,-1.27
2022-12-10T16:36:08.722Z,-1.00
2022-12-10T16:38:36.604Z,-1.07
2022-12-10T16:41:05.345Z,-1.09
2022-12-10T16:43:34.534Z,-0.97
2022-12-10T16:46:02.992Z,-0.72
2022-12-10T16:48:30.910Z,-0.94
2022-12-10T16:51:06.461Z,-0.77
2022-12-10T16:53:36.839Z,-0.68
2022-12-10T16:56:06.125Z,-0.68
2022-12-10T16:58:35.310Z,-0.63
2022-12-10T17:01:03.188Z,-0.66
2022-12-10T17:03:32.518Z,-0.91
2022-12-10T17:06:01.279Z,-0.64
2022-12-10T17:08:30.086Z,-0.60
2022-12-10T17:11:16.239Z,-0.44
2022-12-10T17:13:46.220Z,-0.51
2022-12-10T17:16:15.763Z,-0.59
2022-12-10T17:18:43.702Z,-0.46
2022-12-10T17:21:11.571Z,-0.55
2022-12-10T17:23:39.769Z,-0.54
2022-12-10T17:26:07.953Z,-0.55
2022-12-10T17:28:35.817Z,-0.61
2022-12-10T17:31:04.943Z,-0.42
2022-12-10T17:33:32.779Z,-0.60
2022-12-10T17:36:00.581Z,-0.67
2022-12-10T17:38:28.396Z,-0.40
2022-12-10T17:40:56.286Z,-0.67
2022-12-10T17:43:25.379Z,-0.58
2022-12-10T17:45:53.352Z,-0.47
2022-12-10T17:48:22.844Z,-0.54
2022-12-10T17:50:50.997Z,-0.71
2022-12-10T17:53:19.054Z,-0.58
2022-12-10T17:55:49.378Z,-0.58
2022-12-10T17:58:17.235Z,-0.65
2022-12-10T18:00:45.606Z,-0.57
2022-12-10T18:03:13.456Z,-0.57
2022-12-10T18:05:42.784Z,-0.57
2022-12-10T18:08:11.177Z,-0.68
2022-12-10T18:10:39.956Z,-0.51
2022-12-10T18:13:07.753Z,-0.50
2022-12-10T18:15:36.838Z,-0.51
2022-12-10T18:18:04.838Z,-0.63
2022-12-10T18:20:33.832Z,-0.57
2022-12-10T18:23:04.146Z,-0.48
2022-12-10T18:25:32.043Z,-0.53
2022-12-10T18:28:02.129Z,-0.48
2022-12-10T18:30:31.447Z,-0.58
2022-12-10T18:32:59.439Z,-0.47
2022-12-10T18:35:30.504Z,-0.77
2022-12-10T18:37:58.356Z,-0.73
2022-12-10T18:40:27.490Z,-0.76
2022-12-10T18:42:55.233Z,-0.46
2022-12-10T18:45:23.248Z,-0.68
2022-12-10T18:47:53.368Z,-0.37
2022-12-10T18:50:25.927Z,-0.44
2022-12-10T18:52:54.278Z,-0.40
2022-12-10T18:55:24.019Z,-0.32
2022-12-10T18:58:04.453Z,-0.40
2022-12-10T19:00:36.605Z,-0.45
2022-12-10T19:03:04.565Z,-0.41
2022-12-10T19:05:32.654Z,-0.65
2022-12-10T19:08:00.508Z,-0.51
2022-12-10T19:10:28.481Z,-0.64
2022-12-10T19:12:57.680Z,-0.66
2022-12-10T19:15:25.665Z,-0.63
2022-12-10T19:17:53.456Z,-0.75
2022-12-10T19:20:23.021Z,-0.68
2022-12-10T19:22:51.743Z,-0.71
2022-12-10T19:25:20.264Z,-0.64
2022-12-10T19:27:48.201Z,-0.71
2022-12-10T19:30:18.828Z,-0.86
2022-12-10T19:32:46.935Z,-0.84
2022-12-10T19:35:15.412Z,-0.73
2022-12-10T19:37:44.745Z,-0.69
2022-12-10T19:40:16.961Z,-0.71
2022-12-10T19:42:44.846Z,-0.71
2022-12-10T19:45:12.988Z,-0.78
2022-12-10T19:47:42.512Z,-0.97
2022-12-10T19:50:14.366Z,-0.87
2022-12-10T19:52:42.511Z,-1.01
2022-12-10T19:55:11.163Z,-1.08
2022-12-10T19:57:39.249Z,-0.92
2022-12-10T20:00:10.788Z,-0.88
2022-12-10T20:02:40.370Z,-0.91
2022-12-10T20:05:15.063Z,-0.96
2022-12-10T20:07:45.080Z,-0.90
2022-12-10T20:10:18.632Z,-0.98
2022-12-10T20:12:46.772Z,-1.08
2022-12-10T20:15:14.655Z,-1.35
2022-12-10T20:17:42.516Z,-1.06
2022-12-10T20:20:16.411Z,-0.96
2022-12-10T20:22:44.246Z,-1.05
2022-12-10T20:25:12.535Z,-1.37
2022-12-10T20:27:41.094Z,-1.08
2022-12-10T20:30:09.413Z,-0.91
2022-12-10T20:32:37.203Z,-1.12
2022-12-10T20:35:05.118Z,-0.74
2022-12-10T20:37:34.566Z,-0.75
2022-12-10T20:40:30.253Z,-0.91
2022-12-10T20:42:50.524Z,-0.91
2022-12-10T20:45:18.857Z,-1.05
2022-12-10T20:47:48.066Z,-0.97
2022-12-10T20:50:16.921Z,-0.93
2022-12-10T20:52:46.727Z,-1.07
2022-12-10T20:55:15.135Z,-1.03
2022-12-10T20:57:42.982Z,-1.01
2022-12-10T21:00:16.413Z,-0.95
2022-12-10T21:02:44.964Z,-1.00
2022-12-10T21:05:13.289Z,-0.98
2022-12-10T21:07:41.323Z,-1.10
2022-12-10T21:10:35.593Z,-0.97
2022-12-10T21:13:04.302Z,-0.89
2022-12-10T21:15:32.554Z,-1.03
2022-12-10T21:18:01.177Z,-0.96
2022-12-10T21:20:29.871Z,-1.05
2022-12-10T21:22:59.226Z,-0.99
2022-12-10T21:25:28.650Z,-0.90
2022-12-10T21:27:56.718Z,-0.92
2022-12-10T21:30:25.147Z,-0.91
2022-12-10T21:32:53.441Z,-0.89
2022-12-10T21:35:21.761Z,-0.93
2022-12-10T21:37:49.627Z,-0.97
2022-12-10T21:40:18.093Z,-1.00
2022-12-10T21:43:04.919Z,-1.11
2022-12-10T21:45:33.287Z,-1.13
2022-12-10T21:48:02.219Z,-1.07
2022-12-10T21:50:30.684Z,-1.14
2022-12-10T21:52:58.574Z,-1.04
2022-12-10T21:55:30.275Z,-1.52
2022-12-10T21:58:00.251Z,-1.33
2022-12-10T22:00:28.206Z,-1.34
2022-12-10T22:02:56.689Z,-1.14
2022-12-10T22:05:24.763Z,-1.16
2022-12-10T22:07:52.706Z,-1.29
2022-12-10T22:10:20.642Z,-1.26
2022-12-10T22:12:48.443Z,-1.29
2022-12-10T22:15:17.617Z,-1.43
2022-12-10T22:17:45.426Z,-1.62
2022-12-10T22:20:13.300Z,-1.34
2022-12-10T22:22:41.101Z,-1.34
2022-12-10T22:25:09.929Z,-1.38
2022-12-10T22:27:38.301Z,-1.54
2022-12-10T22:30:07.087Z,-1.69
2022-12-10T22:32:36.307Z,-1.48
2022-12-10T22:35:04.379Z,-1.38
2022-12-10T22:37:32.250Z,-1.61
2022-12-10T22:40:05.483Z,-1.86
2022-12-10T22:42:33.600Z,-1.78
2022-12-10T22:45:01.446Z,-1.60
2022-12-10T22:47:29.652Z,-1.84
2022-12-10T22:49:58.952Z,-1.65
2022-12-10T22:52:26.860Z,-1.72
2022-12-10T22:54:54.715Z,-1.76
2022-12-10T22:57:22.907Z,-1.84
2022-12-10T22:59:50.684Z,-1.97
2022-12-10T23:02:18.777Z,-1.96
2022-12-10T23:04:49.133Z,-1.83
2022-12-10T23:07:18.498Z,-1.87
2022-12-10T23:09:47.071Z,-1.98
2022-12-10T23:12:32.647Z,-1.87
2022-12-10T23:15:00.581Z,-2.02
2022-12-10T23:17:28.435Z,-1.94
2022-12-10T23:19:59.132Z,-1.96
2022-12-10T23:22:29.195Z,-1.95
2022-12-10T23:24:57.061Z,-2.04
2022-12-10T23:27:25.028Z,-2.01
2022-12-10T23:29:53.139Z,-1.91
2022-12-10T23:32:21.018Z,-2.09
2022-12-10T23:34:48.989Z,-1.92
2022-12-10T23:37:16.783Z,-1.98
2022-12-10T23:39:46.002Z,-1.96
2022-12-10T23:42:14.044Z,-2.20
2022-12-10T23:44:42.185Z,-2.03
2022-12-10T23:47:10.024Z,-2.17
2022-12-10T23:49:37.937Z,-2.12
2022-12-10T23:52:09.577Z,-2.43
2022-12-10T23:54:38.283Z,-1.82
2022-12-10T23:57:07.533Z,-2.06
2022-12-10T23:59:35.522Z,-1.93
